Estación de El Tambo INIA

Ultimos registro cada 15 minutos 51
Estación Fecha / Hora Temperatura Humedad Lluvia Velocidad Dirección Radiación Presion
51 El Tambo INIA 05-09-2026 12:30 12,9 59,3 0 2,3 94 676,7 987
50 El Tambo INIA 05-09-2026 12:15 12,4 57,7 0 1,9 98 671,1 988
49 El Tambo INIA 05-09-2026 12:00 11,8 59,9 0 1,9 100 660,7 988
48 El Tambo INIA 05-09-2026 11:45 11,2 62,6 0 1,8 108 646,4 988
47 El Tambo INIA 05-09-2026 11:30 11 61,6 0 1,7 100 630,8 988
46 El Tambo INIA 05-09-2026 11:15 10,5 65,9 0 1,6 99 610,8 988
45 El Tambo INIA 05-09-2026 11:00 10 66,9 0 1,5 90 587,5 988
44 El Tambo INIA 05-09-2026 10:45 9,1 70,9 0 1,4 89 560 989
43 El Tambo INIA 05-09-2026 10:30 8,5 73,9 0 1,2 100 530,6 989
42 El Tambo INIA 05-09-2026 10:15 7,7 76,2 0 1,6 95 497,7 989
41 El Tambo INIA 05-09-2026 10:00 7,5 76,6 0 1,4 98 462,7 989
40 El Tambo INIA 05-09-2026 09:45 7,2 78,4 0 1,4 91 424,5 989
39 El Tambo INIA 05-09-2026 09:30 6,6 80,7 0 1,9 79 359,6 990
38 El Tambo INIA 05-09-2026 09:15 6,2 83 0 1,6 90 331,3 989
37 El Tambo INIA 05-09-2026 09:00 6,1 84,3 0 1,5 99 275,5 990
36 El Tambo INIA 05-09-2026 08:45 5,6 86,8 0 1,7 90 205,9 990
35 El Tambo INIA 05-09-2026 08:30 5,3 88,3 0 2,2 71 216,4 990
34 El Tambo INIA 05-09-2026 08:15 5,2 88,5 0 2,2 73 163,6 990
33 El Tambo INIA 05-09-2026 08:00 4,9 89,7 0 2,3 72 117,7 990
32 El Tambo INIA 05-09-2026 07:45 4,6 91,6 0 2,4 75 51,5 990
31 El Tambo INIA 05-09-2026 07:30 4,3 91,9 0 2,2 72 28,5 990
30 El Tambo INIA 05-09-2026 07:15 4,1 93,2 0 1,8 64 7,7 990
29 El Tambo INIA 05-09-2026 07:00 4,2 92,7 0 1,4 64 2,6 989
28 El Tambo INIA 05-09-2026 06:45 4,3 92,3 0 1,2 65 0,3 990
27 El Tambo INIA 05-09-2026 06:30 4,4 91,5 0 1,5 71 0 990
26 El Tambo INIA 05-09-2026 06:15 4,5 91,4 0 1,4 66 0 990
25 El Tambo INIA 05-09-2026 06:00 4,6 90,7 0 1,3 69 0 990
24 El Tambo INIA 05-09-2026 05:45 4,7 89,9 0 1,4 67 0 990
23 El Tambo INIA 05-09-2026 05:30 4,9 89,3 0 1,5 67 0 990
22 El Tambo INIA 05-09-2026 05:15 5,1 88,7 0 1,6 73 0 990
21 El Tambo INIA 05-09-2026 05:00 5,3 87,8 0 1,5 68 0 990
20 El Tambo INIA 05-09-2026 04:45 5,6 86,4 0 1,6 63 0 990
19 El Tambo INIA 05-09-2026 04:30 5,5 86,5 0 1,5 65 0 990
18 El Tambo INIA 05-09-2026 04:15 5,6 86,3 0 2 68 0 990
17 El Tambo INIA 05-09-2026 04:00 5,8 85,6 0 1,8 63 0 990
16 El Tambo INIA 05-09-2026 03:45 5,9 85,1 0 1,7 65 0 990
15 El Tambo INIA 05-09-2026 03:30 6,1 84,8 0 1,2 82 0 990
14 El Tambo INIA 05-09-2026 03:15 6,4 83,8 0 0,9 87 0 991
13 El Tambo INIA 05-09-2026 03:00 6,6 82,8 0 1 88 0 991
12 El Tambo INIA 05-09-2026 02:45 6,8 82 0 1,2 89 0 991
11 El Tambo INIA 05-09-2026 02:30 6,9 81,4 0 1,6 95 0 991
10 El Tambo INIA 05-09-2026 02:15 7 80,8 0 1,6 94 0 991
9 El Tambo INIA 05-09-2026 02:00 7,2 80,3 0 1,5 100 0 991
8 El Tambo INIA 05-09-2026 01:45 7,5 79,3 0 2 106 0 991
7 El Tambo INIA 05-09-2026 01:30 7,6 78 0 1,9 102 0 991
6 El Tambo INIA 05-09-2026 01:15 8 76,8 0 1,8 101 0 991
5 El Tambo INIA 05-09-2026 01:00 8,2 76 0 1,9 103 0 992
4 El Tambo INIA 05-09-2026 00:45 8,7 73,6 0 1,8 99 0 991
3 El Tambo INIA 05-09-2026 00:30 8,9 71,4 0 1,7 112 0 992
2 El Tambo INIA 05-09-2026 00:15 8,8 72,5 0 1,9 101 0 992
1 El Tambo INIA 05-09-2026 00:00 9,1 71,7 0 2,4 114 0 992